Avalon, Wisconsin
Current Conditions -  °F | °C
As of 7:45 AM on Thursday 23 Oct 2014 (Local Time) from KJVL Reporting Station
Clear Clear  
Wind Chill:   Ceiling: Unl
Heat Index:   Visibility: 10mi
Dew Point:   Wind: 5mph
Humidity: 93%   Direction: 150°SSE
Pressure: 30.17"   Gusts: NA
Location:  42.63°N, 88.87°W
Report Text: KJVL 231245Z 15004KT 10SM CLR 03/02 A3017
Loading
Personal Weather Stations






























Interactive Weather Map
Tropical Storm Tracking
New forecast layout! Learn more

10-Day Weather Forecast

Advertisements
Track Severe Weather on mobile